createdAt,value
2019-03-23T00:02:08.308Z,64.25
2019-03-23T00:04:40.688Z,65.17
2019-03-23T00:07:14.071Z,63.33
2019-03-23T00:09:46.903Z,65.15
2019-03-23T00:12:19.297Z,64.82
2019-03-23T00:14:51.887Z,65.90
2019-03-23T00:17:24.419Z,63.95
2019-03-23T00:19:56.768Z,66.10
2019-03-23T00:22:29.751Z,67.80
2019-03-23T00:25:01.871Z,73.05
2019-03-23T00:27:34.627Z,76.02
2019-03-23T00:30:10.670Z,77.75
2019-03-23T00:32:44.459Z,75.57
2019-03-23T00:35:17.074Z,81.10
2019-03-23T00:37:49.779Z,90.40
2019-03-23T00:40:23.291Z,95.15
2019-03-23T00:42:55.981Z,99.97
2019-03-23T00:45:41.485Z,100.85
2019-03-23T00:48:14.129Z,105.12
2019-03-23T00:50:46.983Z,103.30
2019-03-23T00:53:19.363Z,105.85
2019-03-23T00:55:52.139Z,117.47
2019-03-23T00:58:24.787Z,110.68
2019-03-23T01:00:57.850Z,106.45
2019-03-23T01:03:30.171Z,104.35
2019-03-23T01:06:02.784Z,102.02
2019-03-23T01:08:35.552Z,97.67
2019-03-23T01:11:08.117Z,94.70
2019-03-23T01:13:40.555Z,101.42
2019-03-23T01:16:12.897Z,104.30
2019-03-23T01:18:45.679Z,98.65
2019-03-23T01:21:18.029Z,100.62
2019-03-23T01:23:51.016Z,89.15
2019-03-23T01:26:23.495Z,86.02
2019-03-23T01:28:56.093Z,86.45
2019-03-23T01:31:28.663Z,89.70
2019-03-23T01:34:01.062Z,92.08
2019-03-23T01:36:33.895Z,95.55
2019-03-23T01:39:07.716Z,90.85
2019-03-23T01:41:40.688Z,88.07
2019-03-23T01:44:15.942Z,81.47
2019-03-23T01:46:48.922Z,80.75
2019-03-23T01:49:21.901Z,76.00
2019-03-23T01:51:54.493Z,75.52
2019-03-23T01:54:27.058Z,69.53
2019-03-23T01:56:59.590Z,64.00
2019-03-23T01:59:32.174Z,64.15
2019-03-23T02:02:04.569Z,65.12
2019-03-23T02:04:37.273Z,63.60
2019-03-23T02:07:13.704Z,62.08
2019-03-23T02:09:43.310Z,59.03
2019-03-23T02:12:15.741Z,60.85
2019-03-23T02:14:48.419Z,60.52
2019-03-23T02:17:20.951Z,61.35
2019-03-23T02:19:54.481Z,59.75
2019-03-23T02:22:27.048Z,61.20
2019-03-23T02:24:59.484Z,60.75
2019-03-23T02:27:31.925Z,61.20
2019-03-23T02:30:04.318Z,58.02
2019-03-23T02:32:36.733Z,54.98
2019-03-23T02:35:11.010Z,54.18
2019-03-23T02:37:43.584Z,54.48
2019-03-23T02:40:16.425Z,52.33
2019-03-23T02:42:48.981Z,49.95
2019-03-23T02:45:21.436Z,52.88
2019-03-23T02:47:53.954Z,49.73
2019-03-23T02:50:26.537Z,50.10
2019-03-23T02:52:58.879Z,47.70
2019-03-23T02:55:31.714Z,47.98
2019-03-23T02:58:04.168Z,49.50
2019-03-23T03:00:36.571Z,46.63
2019-03-23T03:03:08.984Z,47.85
2019-03-23T03:05:41.461Z,47.23
2019-03-23T03:08:17.140Z,41.25
2019-03-23T03:10:49.746Z,40.55
2019-03-23T03:13:22.037Z,40.35
2019-03-23T03:15:54.686Z,41.20
2019-03-23T03:18:27.084Z,40.58
2019-03-23T03:20:59.454Z,39.92
2019-03-23T03:23:31.855Z,39.10
2019-03-23T03:26:04.863Z,37.20
2019-03-23T03:28:37.363Z,38.63
2019-03-23T03:31:10.297Z,39.45
2019-03-23T03:33:42.639Z,37.58
2019-03-23T03:36:15.318Z,41.75
2019-03-23T03:38:47.815Z,42.27
2019-03-23T03:41:20.555Z,41.75
2019-03-23T03:43:53.040Z,42.08
2019-03-23T03:46:25.834Z,43.60
2019-03-23T03:49:11.452Z,43.48
2019-03-23T03:51:32.192Z,42.23
2019-03-23T03:54:04.353Z,40.92
2019-03-23T03:56:37.150Z,40.38
2019-03-23T03:59:09.420Z,37.60
2019-03-23T04:01:42.151Z,39.03
2019-03-23T04:04:14.563Z,41.88
2019-03-23T04:06:47.000Z,41.18
2019-03-23T04:09:20.014Z,40.95
2019-03-23T04:11:52.706Z,41.83
2019-03-23T04:14:25.344Z,41.85
2019-03-23T04:16:57.775Z,42.43
2019-03-23T04:19:30.430Z,41.42
2019-03-23T04:22:02.559Z,42.48
2019-03-23T04:24:35.409Z,40.43
2019-03-23T04:27:08.409Z,41.10
2019-03-23T04:29:41.340Z,40.88
2019-03-23T04:32:13.851Z,41.75
2019-03-23T04:34:46.994Z,40.63
2019-03-23T04:37:19.759Z,42.13
2019-03-23T04:39:52.165Z,41.40
2019-03-23T04:42:24.579Z,42.62
2019-03-23T04:44:56.890Z,44.03
2019-03-23T04:47:30.661Z,43.15
2019-03-23T04:50:02.808Z,46.42
2019-03-23T04:52:35.203Z,45.03
2019-03-23T04:55:09.819Z,46.75
2019-03-23T04:57:43.331Z,47.60
2019-03-23T05:00:18.225Z,50.20
2019-03-23T05:02:50.984Z,53.83
2019-03-23T05:05:23.581Z,52.85
2019-03-23T05:07:56.508Z,52.93
2019-03-23T05:10:29.517Z,53.85
2019-03-23T05:13:02.045Z,72.80
2019-03-23T05:15:34.426Z,70.50
2019-03-23T05:18:06.797Z,64.55
2019-03-23T05:20:39.243Z,62.62
2019-03-23T05:23:12.339Z,64.47
2019-03-23T05:25:47.084Z,68.12
2019-03-23T05:28:19.916Z,70.90
2019-03-23T05:30:52.488Z,70.65
2019-03-23T05:33:24.955Z,73.95
2019-03-23T05:35:57.181Z,71.35
2019-03-23T05:38:29.760Z,73.83
2019-03-23T05:41:02.001Z,71.82
2019-03-23T05:43:34.489Z,69.97
2019-03-23T05:46:07.224Z,68.62
2019-03-23T05:48:39.666Z,67.37
2019-03-23T05:51:12.171Z,65.12
2019-03-23T05:53:44.909Z,69.10
2019-03-23T05:56:17.557Z,66.92
2019-03-23T05:58:50.236Z,67.95
2019-03-23T06:01:23.650Z,66.65
2019-03-23T06:03:56.325Z,65.03
2019-03-23T06:06:28.632Z,83.25
2019-03-23T06:09:00.925Z,68.17
2019-03-23T06:11:34.553Z,69.60
2019-03-23T06:14:07.152Z,69.22
2019-03-23T06:16:39.588Z,66.15
2019-03-23T06:19:12.814Z,66.80
2019-03-23T06:21:45.692Z,63.95
2019-03-23T06:24:18.919Z,66.55
2019-03-23T06:26:51.909Z,65.17
2019-03-23T06:29:24.799Z,65.47
2019-03-23T06:31:57.487Z,64.70
2019-03-23T06:34:30.202Z,60.58
2019-03-23T06:37:02.841Z,60.95
2019-03-23T06:39:35.596Z,62.53
2019-03-23T06:42:07.901Z,62.00
2019-03-23T06:44:40.420Z,60.03
2019-03-23T06:47:13.141Z,60.67
2019-03-23T06:49:46.007Z,57.75
2019-03-23T06:52:18.603Z,60.60
2019-03-23T06:54:51.190Z,59.35
2019-03-23T06:57:23.664Z,58.92
2019-03-23T06:59:56.103Z,56.45
2019-03-23T07:02:28.704Z,55.92
2019-03-23T07:05:01.331Z,59.63
2019-03-23T07:07:33.803Z,58.42
2019-03-23T07:10:08.698Z,57.53
2019-03-23T07:12:41.497Z,54.88
2019-03-23T07:15:19.995Z,56.60
2019-03-23T07:17:48.628Z,56.30
2019-03-23T07:20:20.987Z,54.60
2019-03-23T07:22:54.933Z,52.78
2019-03-23T07:25:27.382Z,53.75
2019-03-23T07:28:00.965Z,53.92
2019-03-23T07:30:33.454Z,53.45
2019-03-23T07:33:06.098Z,54.05
2019-03-23T07:35:38.938Z,53.55
2019-03-23T07:38:11.617Z,52.43
2019-03-23T07:40:44.004Z,53.87
2019-03-23T07:43:16.666Z,52.95
2019-03-23T07:45:49.001Z,56.15
2019-03-23T07:48:21.862Z,46.02
2019-03-23T07:50:54.334Z,37.03
2019-03-23T07:53:26.913Z,41.13
2019-03-23T07:55:59.353Z,37.98
2019-03-23T07:58:31.996Z,37.53
2019-03-23T08:01:05.037Z,39.15
2019-03-23T08:03:37.533Z,39.75
2019-03-23T08:06:09.987Z,41.77
2019-03-23T08:08:45.507Z,43.25
2019-03-23T08:11:17.955Z,42.88
2019-03-23T08:13:50.776Z,41.73
2019-03-23T08:16:23.246Z,41.37
2019-03-23T08:18:55.986Z,41.30
2019-03-23T08:21:28.630Z,40.80
2019-03-23T08:24:01.510Z,42.60
2019-03-23T08:26:34.042Z,41.55
2019-03-23T08:29:06.474Z,43.05
2019-03-23T08:31:39.043Z,42.93
2019-03-23T08:34:11.623Z,44.65
2019-03-23T08:36:44.006Z,44.15
2019-03-23T08:39:16.668Z,43.98
2019-03-23T08:41:49.190Z,45.25
2019-03-23T08:44:21.724Z,42.13
2019-03-23T08:46:54.063Z,44.93
2019-03-23T08:49:28.602Z,42.88
2019-03-23T08:52:00.829Z,40.43
2019-03-23T08:54:33.467Z,41.53
2019-03-23T08:57:05.743Z,41.08
2019-03-23T08:59:38.120Z,39.45
2019-03-23T09:02:10.471Z,40.20
2019-03-23T09:04:43.137Z,42.00
2019-03-23T09:07:15.767Z,42.55
2019-03-23T09:09:58.627Z,43.15
2019-03-23T09:15:24.788Z,48.30
2019-03-23T09:17:57.493Z,47.88
2019-03-23T09:20:30.213Z,47.88
2019-03-23T09:23:02.839Z,47.53
2019-03-23T09:25:35.496Z,47.27
2019-03-23T09:28:07.992Z,49.65
2019-03-23T09:30:40.474Z,48.40
2019-03-23T09:33:12.805Z,46.25
2019-03-23T09:35:45.062Z,45.38
2019-03-23T09:38:18.425Z,46.90
2019-03-23T09:40:50.872Z,46.20
2019-03-23T09:43:23.235Z,46.13
2019-03-23T09:45:56.092Z,47.30
2019-03-23T09:48:28.574Z,46.80
2019-03-23T09:51:01.193Z,46.68
2019-03-23T09:53:33.555Z,47.35
2019-03-23T09:56:06.506Z,47.93
2019-03-23T09:58:38.610Z,49.23
2019-03-23T10:01:11.125Z,48.58
2019-03-23T10:03:43.262Z,48.02
2019-03-23T10:06:16.050Z,47.45
2019-03-23T10:08:48.538Z,48.13
2019-03-23T10:11:21.041Z,48.58
2019-03-23T10:13:53.348Z,49.45
2019-03-23T10:16:25.751Z,48.15
2019-03-23T10:18:58.439Z,48.15
2019-03-23T10:21:31.600Z,49.45
2019-03-23T10:24:04.030Z,48.00
2019-03-23T10:26:36.546Z,48.02
2019-03-23T10:29:08.890Z,47.93
2019-03-23T10:31:41.189Z,47.95
2019-03-23T10:34:13.469Z,48.13
2019-03-23T10:36:45.810Z,49.70
2019-03-23T10:39:19.108Z,48.90
2019-03-23T10:41:51.782Z,48.75
2019-03-23T10:44:24.134Z,49.75
2019-03-23T10:46:56.634Z,50.25
2019-03-23T10:49:28.991Z,50.35
2019-03-23T10:52:02.982Z,49.38
2019-03-23T10:54:35.462Z,49.65
2019-03-23T10:57:08.035Z,51.37
2019-03-23T10:59:40.613Z,50.45
2019-03-23T11:02:13.213Z,51.20
2019-03-23T11:04:45.619Z,51.18
2019-03-23T11:07:18.368Z,50.73
2019-03-23T11:09:50.808Z,48.23
2019-03-23T11:12:24.811Z,49.38
2019-03-23T11:14:57.180Z,50.38
2019-03-23T11:17:30.008Z,49.65
2019-03-23T11:20:02.435Z,51.20
2019-03-23T11:22:35.138Z,49.80
2019-03-23T11:25:09.481Z,51.35
2019-03-23T11:27:42.147Z,51.90
2019-03-23T11:30:16.276Z,53.42
2019-03-23T11:32:48.605Z,52.75
2019-03-23T11:35:21.051Z,52.88
2019-03-23T11:37:54.263Z,53.30
2019-03-23T11:40:27.162Z,52.08
2019-03-23T11:42:59.671Z,51.92
2019-03-23T11:45:32.160Z,53.38
2019-03-23T11:48:04.902Z,53.15
2019-03-23T11:50:37.236Z,54.70
2019-03-23T11:53:10.193Z,53.68
2019-03-23T11:55:43.116Z,54.88
2019-03-23T11:58:15.570Z,55.48
2019-03-23T12:00:48.574Z,54.33
2019-03-23T12:03:21.339Z,55.45
2019-03-23T12:05:53.947Z,55.67
2019-03-23T12:08:27.625Z,53.80
2019-03-23T12:11:03.071Z,54.25
2019-03-23T12:13:33.860Z,56.28
2019-03-23T12:16:06.764Z,58.02
2019-03-23T12:18:39.364Z,55.70
2019-03-23T12:21:11.829Z,56.70
2019-03-23T12:23:44.603Z,55.17
2019-03-23T12:26:16.969Z,57.03
2019-03-23T12:28:49.896Z,57.70
2019-03-23T12:31:22.687Z,59.45
2019-03-23T12:33:55.336Z,59.15
2019-03-23T12:36:27.931Z,60.75
2019-03-23T12:39:00.577Z,61.45
2019-03-23T12:41:34.459Z,61.65
2019-03-23T12:44:06.951Z,62.20
2019-03-23T12:46:47.926Z,62.13
2019-03-23T12:49:13.102Z,62.78
2019-03-23T12:51:45.329Z,60.98
2019-03-23T12:54:17.947Z,63.17
2019-03-23T12:56:50.629Z,62.20
2019-03-23T12:59:23.189Z,63.87
2019-03-23T13:01:55.581Z,71.28
2019-03-23T13:04:28.079Z,66.22
2019-03-23T13:07:00.560Z,66.15
2019-03-23T13:09:32.920Z,64.58
2019-03-23T13:12:05.902Z,65.25
2019-03-23T13:14:38.188Z,63.42
2019-03-23T13:17:10.855Z,64.12
2019-03-23T13:19:43.520Z,65.22
2019-03-23T13:22:15.899Z,63.63
2019-03-23T13:24:48.380Z,61.18
2019-03-23T13:27:20.731Z,60.35
2019-03-23T13:29:53.312Z,56.98
2019-03-23T13:32:25.926Z,58.25
2019-03-23T13:34:58.454Z,59.90
2019-03-23T13:37:30.905Z,62.03
2019-03-23T13:40:03.692Z,61.98
2019-03-23T13:42:36.299Z,65.70
2019-03-23T13:45:12.159Z,65.75
2019-03-23T13:47:45.068Z,67.65
2019-03-23T13:50:19.741Z,69.20
2019-03-23T13:52:52.245Z,69.95
2019-03-23T13:55:27.052Z,72.72
2019-03-23T13:58:02.228Z,75.55
2019-03-23T14:00:34.841Z,78.33
2019-03-23T14:03:09.144Z,81.02
2019-03-23T14:05:41.844Z,85.95
2019-03-23T14:08:14.227Z,87.57
2019-03-23T14:10:46.402Z,89.70
2019-03-23T14:13:19.090Z,88.65
2019-03-23T14:15:51.699Z,89.75
2019-03-23T14:18:24.985Z,84.92
2019-03-23T14:20:57.825Z,83.00
2019-03-23T14:23:30.192Z,81.67
2019-03-23T14:26:02.694Z,84.25
2019-03-23T14:28:35.022Z,84.03
2019-03-23T14:31:07.684Z,81.70
2019-03-23T14:33:40.288Z,81.20
2019-03-23T14:36:14.048Z,83.33
2019-03-23T14:38:46.492Z,81.12
2019-03-23T14:41:19.801Z,82.27
2019-03-23T14:43:52.201Z,84.42
2019-03-23T14:46:24.638Z,85.70
2019-03-23T14:49:01.683Z,84.25
2019-03-23T14:51:30.979Z,82.88
2019-03-23T14:54:03.843Z,87.37
2019-03-23T14:56:37.140Z,87.67
2019-03-23T14:59:09.576Z,81.92
2019-03-23T15:01:42.209Z,83.00
2019-03-23T15:04:14.705Z,81.22
2019-03-23T15:06:47.081Z,81.50
2019-03-23T15:09:19.910Z,81.72
2019-03-23T15:11:52.355Z,80.77
2019-03-23T15:14:25.976Z,79.92
2019-03-23T15:16:59.313Z,79.60
2019-03-23T15:19:31.655Z,80.77
2019-03-23T15:22:04.159Z,83.78
2019-03-23T15:24:36.589Z,87.70
2019-03-23T15:27:09.432Z,81.08
2019-03-23T15:29:41.907Z,83.95
2019-03-23T15:32:14.542Z,83.92
2019-03-23T15:34:47.104Z,85.12
2019-03-23T15:37:19.693Z,85.67
2019-03-23T15:39:52.025Z,84.80
2019-03-23T15:42:25.178Z,82.42
2019-03-23T15:44:57.943Z,80.40
2019-03-23T15:47:30.627Z,73.70
2019-03-23T15:50:03.000Z,65.85
2019-03-23T15:52:35.913Z,67.87
2019-03-23T15:55:09.286Z,64.00
2019-03-23T15:57:41.546Z,61.90
2019-03-23T16:00:15.048Z,57.75
2019-03-23T16:02:47.363Z,55.08
2019-03-23T16:05:19.771Z,54.85
2019-03-23T16:07:52.447Z,54.95
2019-03-23T16:10:24.836Z,54.03
2019-03-23T16:12:57.311Z,56.40
2019-03-23T16:15:29.815Z,55.15
2019-03-23T16:18:02.456Z,56.58
2019-03-23T16:20:34.917Z,54.33
2019-03-23T16:23:07.884Z,54.70
2019-03-23T16:25:40.380Z,58.50
2019-03-23T16:28:12.867Z,57.48
2019-03-23T16:30:45.873Z,58.35
2019-03-23T16:33:18.356Z,55.28
2019-03-23T16:35:51.075Z,55.15
2019-03-23T16:38:23.406Z,53.35
2019-03-23T16:40:56.269Z,54.18
2019-03-23T16:43:28.599Z,53.17
2019-03-23T16:46:01.317Z,50.85
2019-03-23T16:48:33.708Z,52.75
2019-03-23T16:51:06.247Z,51.70
2019-03-23T16:53:38.550Z,53.05
2019-03-23T16:56:11.464Z,53.38
2019-03-23T16:58:44.285Z,52.95
2019-03-23T17:01:16.936Z,50.78
2019-03-23T17:03:49.286Z,53.30
2019-03-23T17:06:22.038Z,51.13
2019-03-23T17:08:54.821Z,51.68
2019-03-23T17:11:27.620Z,51.90
2019-03-23T17:14:00.363Z,52.08
2019-03-23T17:16:32.827Z,54.13
2019-03-23T17:19:05.484Z,52.00
2019-03-23T17:21:38.011Z,51.48
2019-03-23T17:24:10.647Z,50.08
2019-03-23T17:26:43.415Z,49.15
2019-03-23T17:29:15.801Z,48.87
2019-03-23T17:31:49.338Z,50.23
2019-03-23T17:34:21.766Z,50.63
2019-03-23T17:36:54.308Z,46.68
2019-03-23T17:39:26.654Z,49.53
2019-03-23T17:41:59.471Z,47.85
2019-03-23T17:44:32.264Z,48.90
2019-03-23T17:47:04.818Z,51.25
2019-03-23T17:49:37.215Z,50.15
2019-03-23T17:52:10.103Z,52.43
2019-03-23T17:54:43.894Z,52.70
2019-03-23T17:57:16.613Z,50.35
2019-03-23T17:59:50.793Z,52.25
2019-03-23T18:02:23.346Z,52.43
2019-03-23T18:04:55.686Z,52.27
2019-03-23T18:07:28.517Z,53.92
2019-03-23T18:10:01.211Z,53.25
2019-03-23T18:12:33.737Z,54.70
2019-03-23T18:15:08.761Z,53.00
2019-03-23T18:17:41.405Z,54.05
2019-03-23T18:20:14.342Z,54.85
2019-03-23T18:22:47.104Z,55.12
2019-03-23T18:25:19.661Z,55.20
2019-03-23T18:27:52.272Z,54.08
2019-03-23T18:30:26.899Z,54.08
2019-03-23T18:32:59.344Z,55.38
2019-03-23T18:35:31.898Z,56.10
2019-03-23T18:38:05.064Z,56.60
2019-03-23T18:40:39.402Z,54.90
2019-03-23T18:43:11.759Z,54.88
2019-03-23T18:45:44.607Z,54.00
2019-03-23T18:48:17.203Z,53.68
2019-03-23T18:50:49.566Z,55.78
2019-03-23T18:53:24.029Z,54.18
2019-03-23T18:55:56.724Z,51.85
2019-03-23T18:58:29.246Z,51.00
2019-03-23T19:01:01.682Z,52.00
2019-03-23T19:03:34.270Z,54.18
2019-03-23T19:06:06.912Z,52.30
2019-03-23T19:08:39.026Z,53.17
2019-03-23T19:11:11.615Z,51.77
2019-03-23T19:13:44.259Z,52.50
2019-03-23T19:16:16.817Z,51.37
2019-03-23T19:18:49.386Z,52.78
2019-03-23T19:21:21.823Z,53.13
2019-03-23T19:23:54.340Z,52.85
2019-03-23T19:26:27.032Z,52.03
2019-03-23T19:28:59.644Z,52.25
2019-03-23T19:31:32.626Z,50.70
2019-03-23T19:34:05.152Z,53.28
2019-03-23T19:36:37.728Z,52.33
2019-03-23T19:39:10.632Z,53.15
2019-03-23T19:41:42.963Z,52.65
2019-03-23T19:44:15.301Z,51.05
2019-03-23T19:46:47.940Z,52.48
2019-03-23T19:49:20.296Z,53.95
2019-03-23T19:51:52.790Z,52.23
2019-03-23T19:54:25.202Z,53.50
2019-03-23T19:56:58.062Z,54.35
2019-03-23T19:59:30.392Z,54.77
2019-03-23T20:02:02.843Z,54.75
2019-03-23T20:04:35.064Z,53.87
2019-03-23T20:07:07.489Z,55.60
2019-03-23T20:09:40.093Z,54.15
2019-03-23T20:12:14.286Z,55.48
2019-03-23T20:14:46.714Z,56.35
2019-03-23T20:17:19.301Z,56.08
2019-03-23T20:19:51.694Z,56.08
2019-03-23T20:22:24.346Z,55.10
2019-03-23T20:24:56.843Z,53.58
2019-03-23T20:27:29.649Z,55.40
2019-03-23T20:30:02.339Z,56.05
2019-03-23T20:32:35.299Z,54.58
2019-03-23T20:35:09.293Z,54.23
2019-03-23T20:37:41.674Z,55.45
2019-03-23T20:40:15.155Z,54.33
2019-03-23T20:42:47.658Z,53.52
2019-03-23T20:45:22.395Z,54.80
2019-03-23T20:47:54.932Z,54.58
2019-03-23T20:50:27.380Z,54.95
2019-03-23T20:52:59.875Z,52.85
2019-03-23T20:55:33.391Z,55.58
2019-03-23T20:58:06.184Z,53.25
2019-03-23T21:00:38.843Z,53.80
2019-03-23T21:03:11.420Z,53.80
2019-03-23T21:05:43.858Z,54.25
2019-03-23T21:08:16.234Z,52.43
2019-03-23T21:10:48.720Z,52.48
2019-03-23T21:13:21.325Z,53.35
2019-03-23T21:15:53.827Z,50.90
2019-03-23T21:18:26.248Z,52.40
2019-03-23T21:20:58.415Z,53.00
2019-03-23T21:23:30.752Z,53.30
2019-03-23T21:26:03.397Z,52.03
2019-03-23T21:28:35.920Z,52.70
2019-03-23T21:31:08.527Z,51.25
2019-03-23T21:33:40.912Z,53.55
2019-03-23T21:36:13.557Z,51.55
2019-03-23T21:38:47.315Z,51.00
2019-03-23T21:41:19.738Z,50.98
2019-03-23T21:43:52.070Z,51.92
2019-03-23T21:46:24.320Z,53.10
2019-03-23T21:48:56.981Z,51.15
2019-03-23T21:51:29.457Z,52.43
2019-03-23T21:54:02.164Z,51.13
2019-03-23T21:56:35.052Z,52.33
2019-03-23T21:59:08.739Z,50.95
2019-03-23T22:01:41.236Z,52.23
2019-03-23T22:04:13.886Z,50.92
2019-03-23T22:06:46.110Z,51.98
2019-03-23T22:09:18.490Z,51.55
2019-03-23T22:11:51.052Z,51.42
2019-03-23T22:14:23.618Z,51.20
2019-03-23T22:16:57.125Z,53.68
2019-03-23T22:19:29.841Z,50.88
2019-03-23T22:22:02.274Z,49.98
2019-03-23T22:24:34.878Z,51.48
2019-03-23T22:27:07.262Z,51.30
2019-03-23T22:29:39.743Z,50.20
2019-03-23T22:32:12.265Z,50.15
2019-03-23T22:34:45.048Z,51.08
2019-03-23T22:37:17.290Z,50.52
2019-03-23T22:39:49.771Z,52.00
2019-03-23T22:42:22.330Z,49.67
2019-03-23T22:44:55.073Z,51.37
2019-03-23T22:47:27.402Z,49.00
2019-03-23T22:49:59.901Z,50.73
2019-03-23T22:52:32.249Z,49.58
2019-03-23T22:55:05.057Z,49.33
2019-03-23T22:57:38.653Z,50.38
2019-03-23T23:00:14.707Z,51.20
2019-03-23T23:02:49.048Z,49.90
2019-03-23T23:05:22.416Z,49.05
2019-03-23T23:07:55.070Z,48.90
2019-03-23T23:10:27.561Z,51.10
2019-03-23T23:13:00.116Z,49.75
2019-03-23T23:15:32.777Z,48.70
2019-03-23T23:18:05.574Z,50.00
2019-03-23T23:20:37.916Z,48.08
2019-03-23T23:23:10.567Z,48.23
2019-03-23T23:25:42.970Z,49.53
2019-03-23T23:28:15.635Z,48.15
2019-03-23T23:30:48.128Z,48.75
2019-03-23T23:33:21.340Z,48.25
2019-03-23T23:35:54.399Z,48.63
2019-03-23T23:38:27.053Z,49.03
2019-03-23T23:40:59.583Z,47.93
2019-03-23T23:43:32.586Z,48.80
2019-03-23T23:46:04.914Z,48.25
2019-03-23T23:48:38.082Z,48.42
2019-03-23T23:51:10.599Z,48.95
2019-03-23T23:53:43.045Z,47.62
2019-03-23T23:56:15.509Z,47.88
2019-03-23T23:58:47.953Z,50.12
